Chicago, Illinois
Current Conditions -  °F | °C
As of 12:53 PM on Sunday 21 Dec 2014 (Local Time) from KMDW Reporting Station
Overcast Overcast  
Wind Chill: 29°   Ceiling: 2700
Heat Index: 37°   Visibility: 10mi
Dew Point: 28°   Wind: 13mph
Humidity: 70%   Direction: 170°S
Pressure: 30.13"   Gusts: 21mph
Location:  41.88°N, 87.63°W
Report Text: KMDW 211853Z 17011G18KT 10SM OVC027 03/M02 A3013 RMK AO2 SLP213 T00281022 $
Loading
Personal Weather Stations






























Interactive Weather Map New forecast layout! Learn more

10-Day Weather Forecast

Advertisements
Track Severe Weather on mobile